RJTY/OKO METAR and TAF weather

Enter ICAO airport designator
Station Type Date Time Source
RJTY METAR 2022/01/25 04:56 UTC NOAA

RJTY 250456Z 09003KT 10SM FEW030 BKN170 07/M05 A3010 RMK AO2A SLP201 T00691051 $


Station Type Date Time Source
RJTY Decoded METAR 2022/01/25 04:56 UTC NOAA

Yokota Ab, Japan (RJTY) 35-45N 139-21E 142M
Jan 24, 2022 - 11:56 PM EST / 2022.01.25 0456 UTC
Wind: from the E (090 degrees) at 3 MPH (3 KT):0
Visibility: 10 mile(s):0
Sky conditions: mostly cloudy
Temperature: 44.4 F (6.9 C)
Dew Point: 22.8 F (-5.1 C)
Relative Humidity: 42%
Pressure (altimeter): 30.1 in. Hg (1019 hPa)
ob: RJTY 250456Z 09003KT 10SM FEW030 BKN170 07/M05 A3010 RMK AO2A SLP201 T00691051
cycle: 5

Station Type Date Time Source
RJTY TAF 2022/01/25 05:13 UTC NOAA

TAF RJTY 250500Z 2505/2611 13009KT 9999 SCT025 BKN040 BKN200 620402 QNH3007INS
BECMG 2510/2511 35006KT 9999 SCT015 OVC030 620304 QNH3003INS
TEMPO 2512/2518 VCSH BKN015 OVC030
BECMG 2602/2603 05009KT 9999 SCT030 BKN070 QNH2994INS
BECMG 2608/2609 03006KT 9999 FEW030 SCT060 QNH2999INS TX11/2605Z TN00/2521Z

Example: see airport list